Аэропорт: Стригино. Нижний Новгород

ICAO: UWGG

METAR:
2021-07-28 13:30:00
UWGG 281330Z 25001MPS 9999 SCT040 25/12 Q1014 R18L/090070 NOSIG
METAR:
2021-07-28 10:51:00
TAF UWGG 281051Z 2812/2912 15003G09MPS 9999 SCT040 TX27/2812Z TN17/2903Z PROB40 TEMPO 2812/2818 -TSRA BKN014CB TEMPO 2903/2912 -TSRA BKN012CB